sensor_id;sensor_type;location;lat;lon;timestamp;pressure;altitude;pressure_sealevel;temperature;humidity
47913;BME280;33676;51.006;17.180;2023-03-20T00:02:24;100204.73;;;7.93;78.82
47913;BME280;33676;51.006;17.180;2023-03-20T00:04:52;100204.08;;;7.95;78.78
47913;BME280;33676;51.006;17.180;2023-03-20T00:07:21;100199.61;;;7.96;78.81
47913;BME280;33676;51.006;17.180;2023-03-20T00:09:49;100198.92;;;8.00;78.81
47913;BME280;33676;51.006;17.180;2023-03-20T00:12:23;100197.02;;;8.02;78.83
47913;BME280;33676;51.006;17.180;2023-03-20T00:14:53;100198.81;;;8.06;78.72
47913;BME280;33676;51.006;17.180;2023-03-20T00:17:22;100195.09;;;8.09;78.76
47913;BME280;33676;51.006;17.180;2023-03-20T00:19:50;100194.36;;;8.12;78.79
47913;BME280;33676;51.006;17.180;2023-03-20T00:22:19;100192.74;;;8.16;78.77
47913;BME280;33676;51.006;17.180;2023-03-20T00:24:47;100194.13;;;8.18;78.68
47913;BME280;33676;51.006;17.180;2023-03-20T00:27:16;100194.46;;;8.21;78.67
47913;BME280;33676;51.006;17.180;2023-03-20T00:29:45;100197.39;;;8.24;78.72
47913;BME280;33676;51.006;17.180;2023-03-20T00:32:14;100199.42;;;8.27;78.69
47913;BME280;33676;51.006;17.180;2023-03-20T00:34:42;100194.34;;;8.30;78.54
47913;BME280;33676;51.006;17.180;2023-03-20T00:37:11;100194.27;;;8.34;78.64
47913;BME280;33676;51.006;17.180;2023-03-20T00:39:40;100194.70;;;8.38;78.65
47913;BME280;33676;51.006;17.180;2023-03-20T00:42:21;100194.02;;;8.42;78.60
47913;BME280;33676;51.006;17.180;2023-03-20T00:44:53;100192.06;;;8.48;78.57
47913;BME280;33676;51.006;17.180;2023-03-20T00:47:23;100190.67;;;8.52;78.42
47913;BME280;33676;51.006;17.180;2023-03-20T00:49:53;100190.70;;;8.57;78.41
47913;BME280;33676;51.006;17.180;2023-03-20T00:52:23;100189.33;;;8.62;78.33
47913;BME280;33676;51.006;17.180;2023-03-20T00:54:52;100189.34;;;8.67;78.20
47913;BME280;33676;51.006;17.180;2023-03-20T00:57:29;100190.46;;;8.71;78.18
47913;BME280;33676;51.006;17.180;2023-03-20T01:03:21;100187.02;;;8.77;78.07
47913;BME280;33676;51.006;17.180;2023-03-20T01:05:50;100183.22;;;8.79;77.95
47913;BME280;33676;51.006;17.180;2023-03-20T01:08:23;100182.78;;;8.80;78.05
47913;BME280;33676;51.006;17.180;2023-03-20T01:10:53;100179.73;;;8.81;77.97
47913;BME280;33676;51.006;17.180;2023-03-20T01:13:28;100180.17;;;8.83;78.11
47913;BME280;33676;51.006;17.180;2023-03-20T01:15:58;100183.67;;;8.84;78.11
47913;BME280;33676;51.006;17.180;2023-03-20T01:18:26;100180.88;;;8.85;77.94
47913;BME280;33676;51.006;17.180;2023-03-20T01:20:55;100183.75;;;8.86;77.95
47913;BME280;33676;51.006;17.180;2023-03-20T01:23:23;100183.52;;;8.86;77.90
47913;BME280;33676;51.006;17.180;2023-03-20T01:25:53;100182.70;;;8.86;77.85
47913;BME280;33676;51.006;17.180;2023-03-20T01:28:23;100183.44;;;8.85;77.87
47913;BME280;33676;51.006;17.180;2023-03-20T01:30:51;100187.16;;;8.84;77.85
47913;BME280;33676;51.006;17.180;2023-03-20T01:33:23;100184.06;;;8.84;78.00
47913;BME280;33676;51.006;17.180;2023-03-20T01:35:53;100187.60;;;8.83;77.99
47913;BME280;33676;51.006;17.180;2023-03-20T01:38:24;100182.73;;;8.83;78.18
47913;BME280;33676;51.006;17.180;2023-03-20T01:41:13;100186.53;;;8.84;78.44
47913;BME280;33676;51.006;17.180;2023-03-20T01:43:44;100187.89;;;8.84;78.60
47913;BME280;33676;51.006;17.180;2023-03-20T01:46:28;100192.21;;;8.85;78.76
47913;BME280;33676;51.006;17.180;2023-03-20T01:51:49;100188.02;;;8.87;79.13
47913;BME280;33676;51.006;17.180;2023-03-20T01:54:23;100191.63;;;8.88;79.30
47913;BME280;33676;51.006;17.180;2023-03-20T01:57:17;100192.59;;;8.89;79.55
47913;BME280;33676;51.006;17.180;2023-03-20T02:00:14;100191.98;;;8.90;79.87
47913;BME280;33676;51.006;17.180;2023-03-20T02:02:46;100191.45;;;8.90;79.99
47913;BME280;33676;51.006;17.180;2023-03-20T02:05:19;100192.32;;;8.90;80.25
47913;BME280;33676;51.006;17.180;2023-03-20T02:08:04;100192.39;;;8.89;80.49
47913;BME280;33676;51.006;17.180;2023-03-20T02:10:39;100192.77;;;8.87;80.83
47913;BME280;33676;51.006;17.180;2023-03-20T02:13:08;100193.56;;;8.85;81.26
47913;BME280;33676;51.006;17.180;2023-03-20T02:16:03;100192.52;;;8.85;82.03
47913;BME280;33676;51.006;17.180;2023-03-20T02:18:32;100193.40;;;8.85;82.86
47913;BME280;33676;51.006;17.180;2023-03-20T02:27:23;100195.09;;;8.88;84.13
47913;BME280;33676;51.006;17.180;2023-03-20T02:36:36;100194.57;;;8.90;85.41
47913;BME280;33676;51.006;17.180;2023-03-20T02:42:43;100195.90;;;8.91;86.07
47913;BME280;33676;51.006;17.180;2023-03-20T02:45:28;100197.22;;;8.92;86.23
47913;BME280;33676;51.006;17.180;2023-03-20T02:51:11;100191.59;;;8.93;86.50
47913;BME280;33676;51.006;17.180;2023-03-20T02:53:54;100192.44;;;8.93;86.67
47913;BME280;33676;51.006;17.180;2023-03-20T02:56:42;100191.27;;;8.93;87.03
47913;BME280;33676;51.006;17.180;2023-03-20T02:59:45;100192.63;;;8.91;87.48
47913;BME280;33676;51.006;17.180;2023-03-20T03:02:35;100191.66;;;8.90;87.82
47913;BME280;33676;51.006;17.180;2023-03-20T03:05:14;100188.33;;;8.87;88.23
47913;BME280;33676;51.006;17.180;2023-03-20T03:07:45;100188.63;;;8.86;88.39
47913;BME280;33676;51.006;17.180;2023-03-20T03:10:52;100186.43;;;8.85;88.74
47913;BME280;33676;51.006;17.180;2023-03-20T03:13:26;100185.66;;;8.84;89.05
47913;BME280;33676;51.006;17.180;2023-03-20T03:16:01;100186.77;;;8.83;89.15
47913;BME280;33676;51.006;17.180;2023-03-20T03:18:34;100183.16;;;8.82;89.39
47913;BME280;33676;51.006;17.180;2023-03-20T03:21:06;100182.17;;;8.82;89.54
47913;BME280;33676;51.006;17.180;2023-03-20T03:23:45;100183.20;;;8.81;89.66
47913;BME280;33676;51.006;17.180;2023-03-20T03:26:27;100184.90;;;8.82;89.85
47913;BME280;33676;51.006;17.180;2023-03-20T03:29:14;100181.27;;;8.82;90.00
47913;BME280;33676;51.006;17.180;2023-03-20T03:31:44;100181.39;;;8.83;90.27
47913;BME280;33676;51.006;17.180;2023-03-20T03:34:16;100179.83;;;8.82;90.44
47913;BME280;33676;51.006;17.180;2023-03-20T03:37:17;100180.86;;;8.83;90.50
47913;BME280;33676;51.006;17.180;2023-03-20T03:39:52;100180.59;;;8.84;90.80
47913;BME280;33676;51.006;17.180;2023-03-20T03:42:50;100182.58;;;8.85;90.92
47913;BME280;33676;51.006;17.180;2023-03-20T03:45:31;100179.45;;;8.87;90.99
47913;BME280;33676;51.006;17.180;2023-03-20T03:48:20;100183.39;;;8.88;91.07
47913;BME280;33676;51.006;17.180;2023-03-20T03:50:58;100177.84;;;8.90;91.33
47913;BME280;33676;51.006;17.180;2023-03-20T03:53:36;100180.05;;;8.91;91.27
47913;BME280;33676;51.006;17.180;2023-03-20T03:56:09;100177.98;;;8.91;91.39
47913;BME280;33676;51.006;17.180;2023-03-20T03:58:44;100181.85;;;8.90;91.46
47913;BME280;33676;51.006;17.180;2023-03-20T04:01:17;100179.55;;;8.91;91.54
47913;BME280;33676;51.006;17.180;2023-03-20T04:03:50;100176.70;;;8.92;91.78
47913;BME280;33676;51.006;17.180;2023-03-20T04:06:21;100178.15;;;8.93;92.05
47913;BME280;33676;51.006;17.180;2023-03-20T04:08:49;100180.91;;;8.93;92.00
47913;BME280;33676;51.006;17.180;2023-03-20T04:11:22;100185.75;;;8.94;92.05
47913;BME280;33676;51.006;17.180;2023-03-20T04:13:57;100184.26;;;8.95;92.05
47913;BME280;33676;51.006;17.180;2023-03-20T04:16:25;100186.99;;;8.96;92.11
47913;BME280;33676;51.006;17.180;2023-03-20T04:18:54;100186.73;;;8.97;92.31
47913;BME280;33676;51.006;17.180;2023-03-20T04:21:23;100190.48;;;8.99;92.34
47913;BME280;33676;51.006;17.180;2023-03-20T04:23:52;100188.67;;;9.00;92.50
47913;BME280;33676;51.006;17.180;2023-03-20T04:26:20;100191.46;;;9.00;92.52
47913;BME280;33676;51.006;17.180;2023-03-20T04:28:50;100187.80;;;9.00;92.34
47913;BME280;33676;51.006;17.180;2023-03-20T04:31:19;100189.22;;;8.99;92.41
47913;BME280;33676;51.006;17.180;2023-03-20T04:33:47;100195.16;;;8.99;92.47
47913;BME280;33676;51.006;17.180;2023-03-20T04:36:15;100193.08;;;8.99;92.55
47913;BME280;33676;51.006;17.180;2023-03-20T04:38:44;100199.27;;;9.00;92.67
47913;BME280;33676;51.006;17.180;2023-03-20T04:41:12;100194.22;;;9.00;92.71
47913;BME280;33676;51.006;17.180;2023-03-20T04:43:41;100193.21;;;9.00;92.79
47913;BME280;33676;51.006;17.180;2023-03-20T04:46:09;100191.54;;;9.01;92.82
47913;BME280;33676;51.006;17.180;2023-03-20T04:48:38;100197.48;;;9.01;92.88
47913;BME280;33676;51.006;17.180;2023-03-20T04:51:06;100192.89;;;9.00;92.90
47913;BME280;33676;51.006;17.180;2023-03-20T04:53:35;100192.47;;;8.98;93.04
47913;BME280;33676;51.006;17.180;2023-03-20T04:56:04;100196.30;;;8.98;92.90
47913;BME280;33676;51.006;17.180;2023-03-20T04:58:32;100200.02;;;8.97;92.94
47913;BME280;33676;51.006;17.180;2023-03-20T05:01:03;100199.42;;;8.96;93.02
47913;BME280;33676;51.006;17.180;2023-03-20T05:03:31;100198.23;;;8.95;93.05
47913;BME280;33676;51.006;17.180;2023-03-20T05:06:00;100203.30;;;8.95;93.16
47913;BME280;33676;51.006;17.180;2023-03-20T05:08:28;100204.60;;;8.94;93.12
47913;BME280;33676;51.006;17.180;2023-03-20T05:10:57;100198.30;;;8.94;93.34
47913;BME280;33676;51.006;17.180;2023-03-20T05:13:25;100202.41;;;8.93;93.28
47913;BME280;33676;51.006;17.180;2023-03-20T05:15:54;100200.91;;;8.89;93.16
47913;BME280;33676;51.006;17.180;2023-03-20T05:18:22;100197.70;;;8.83;92.91
47913;BME280;33676;51.006;17.180;2023-03-20T05:20:50;100197.34;;;8.79;93.04
47913;BME280;33676;51.006;17.180;2023-03-20T05:23:19;100197.18;;;8.77;93.28
47913;BME280;33676;51.006;17.180;2023-03-20T05:25:47;100199.76;;;8.77;93.68
47913;BME280;33676;51.006;17.180;2023-03-20T05:28:16;100199.45;;;8.79;94.00
47913;BME280;33676;51.006;17.180;2023-03-20T05:30:44;100202.50;;;8.80;94.13
47913;BME280;33676;51.006;17.180;2023-03-20T05:33:13;100201.04;;;8.81;94.22
47913;BME280;33676;51.006;17.180;2023-03-20T05:35:41;100204.89;;;8.83;94.28
47913;BME280;33676;51.006;17.180;2023-03-20T05:38:10;100206.68;;;8.84;94.35
47913;BME280;33676;51.006;17.180;2023-03-20T05:40:38;100207.71;;;8.87;94.48
47913;BME280;33676;51.006;17.180;2023-03-20T05:43:08;100212.20;;;8.90;94.76
47913;BME280;33676;51.006;17.180;2023-03-20T05:45:37;100219.09;;;8.93;94.84
47913;BME280;33676;51.006;17.180;2023-03-20T05:48:05;100222.43;;;8.98;94.88
47913;BME280;33676;51.006;17.180;2023-03-20T05:50:34;100225.31;;;9.04;95.06
47913;BME280;33676;51.006;17.180;2023-03-20T05:53:02;100224.89;;;9.10;95.15
47913;BME280;33676;51.006;17.180;2023-03-20T05:55:30;100226.13;;;9.14;95.36
47913;BME280;33676;51.006;17.180;2023-03-20T05:58:00;100229.73;;;9.18;95.11
47913;BME280;33676;51.006;17.180;2023-03-20T06:00:29;100229.23;;;9.20;95.32
47913;BME280;33676;51.006;17.180;2023-03-20T06:02:57;100227.46;;;9.22;95.57
47913;BME280;33676;51.006;17.180;2023-03-20T06:05:25;100230.29;;;9.26;95.49
47913;BME280;33676;51.006;17.180;2023-03-20T06:07:54;100227.89;;;9.31;95.56
47913;BME280;33676;51.006;17.180;2023-03-20T06:10:22;100229.48;;;9.36;95.71
47913;BME280;33676;51.006;17.180;2023-03-20T06:12:50;100225.47;;;9.42;95.75
47913;BME280;33676;51.006;17.180;2023-03-20T06:15:19;100224.21;;;9.49;96.04
47913;BME280;33676;51.006;17.180;2023-03-20T06:17:47;100228.89;;;9.57;96.08
47913;BME280;33676;51.006;17.180;2023-03-20T06:20:16;100225.27;;;9.63;96.08
47913;BME280;33676;51.006;17.180;2023-03-20T06:22:45;100228.42;;;9.70;96.25
47913;BME280;33676;51.006;17.180;2023-03-20T06:25:14;100227.88;;;9.78;96.33
47913;BME280;33676;51.006;17.180;2023-03-20T06:27:42;100231.23;;;9.84;96.37
47913;BME280;33676;51.006;17.180;2023-03-20T06:30:14;100234.71;;;9.91;96.50
47913;BME280;33676;51.006;17.180;2023-03-20T06:42:35;100237.20;;;10.11;96.77
47913;BME280;33676;51.006;17.180;2023-03-20T06:45:04;100239.27;;;10.14;96.91
47913;BME280;33676;51.006;17.180;2023-03-20T06:47:33;100241.34;;;10.18;96.96
47913;BME280;33676;51.006;17.180;2023-03-20T06:50:03;100243.33;;;10.22;97.06
47913;BME280;33676;51.006;17.180;2023-03-20T06:52:31;100249.45;;;10.26;97.20
47913;BME280;33676;51.006;17.180;2023-03-20T06:55:01;100249.24;;;10.29;97.29
47913;BME280;33676;51.006;17.180;2023-03-20T06:57:29;100247.27;;;10.33;97.32
47913;BME280;33676;51.006;17.180;2023-03-20T06:59:58;100253.56;;;10.37;97.46
47913;BME280;33676;51.006;17.180;2023-03-20T07:02:27;100248.30;;;10.41;97.65
47913;BME280;33676;51.006;17.180;2023-03-20T07:04:55;100247.39;;;10.46;97.78
47913;BME280;33676;51.006;17.180;2023-03-20T07:07:24;100248.52;;;10.52;97.95
47913;BME280;33676;51.006;17.180;2023-03-20T07:09:52;100247.60;;;10.59;97.98
47913;BME280;33676;51.006;17.180;2023-03-20T07:12:21;100249.43;;;10.67;98.17
47913;BME280;33676;51.006;17.180;2023-03-20T07:14:53;100248.84;;;10.75;98.29
47913;BME280;33676;51.006;17.180;2023-03-20T07:17:22;100250.66;;;10.82;98.37
47913;BME280;33676;51.006;17.180;2023-03-20T07:19:50;100252.61;;;10.89;98.49
47913;BME280;33676;51.006;17.180;2023-03-20T07:22:27;100250.98;;;10.93;98.46
47913;BME280;33676;51.006;17.180;2023-03-20T07:24:56;100248.77;;;10.99;98.38
47913;BME280;33676;51.006;17.180;2023-03-20T07:27:25;100250.58;;;11.03;98.44
47913;BME280;33676;51.006;17.180;2023-03-20T07:29:54;100248.69;;;11.07;98.49
47913;BME280;33676;51.006;17.180;2023-03-20T07:32:22;100254.98;;;11.11;98.41
47913;BME280;33676;51.006;17.180;2023-03-20T07:34:51;100255.24;;;11.14;98.35
47913;BME280;33676;51.006;17.180;2023-03-20T07:37:19;100255.63;;;11.16;98.31
47913;BME280;33676;51.006;17.180;2023-03-20T07:39:48;100256.65;;;11.18;98.43
47913;BME280;33676;51.006;17.180;2023-03-20T07:42:17;100261.70;;;11.21;98.46
47913;BME280;33676;51.006;17.180;2023-03-20T07:44:45;100259.77;;;11.23;98.40
47913;BME280;33676;51.006;17.180;2023-03-20T07:47:14;100258.63;;;11.26;98.54
47913;BME280;33676;51.006;17.180;2023-03-20T07:49:43;100257.84;;;11.30;98.48
47913;BME280;33676;51.006;17.180;2023-03-20T07:52:11;100257.48;;;11.34;98.45
47913;BME280;33676;51.006;17.180;2023-03-20T07:54:39;100264.05;;;11.38;98.47
47913;BME280;33676;51.006;17.180;2023-03-20T07:57:08;100263.41;;;11.41;98.32
47913;BME280;33676;51.006;17.180;2023-03-20T07:59:36;100266.77;;;11.45;98.35
47913;BME280;33676;51.006;17.180;2023-03-20T08:02:05;100271.02;;;11.48;98.09
47913;BME280;33676;51.006;17.180;2023-03-20T08:04:33;100268.55;;;11.50;97.74
47913;BME280;33676;51.006;17.180;2023-03-20T08:07:02;100268.96;;;11.54;97.74
47913;BME280;33676;51.006;17.180;2023-03-20T08:09:31;100268.85;;;11.60;97.67
47913;BME280;33676;51.006;17.180;2023-03-20T08:11:59;100267.80;;;11.64;97.44
47913;BME280;33676;51.006;17.180;2023-03-20T08:14:28;100268.22;;;11.67;97.17
47913;BME280;33676;51.006;17.180;2023-03-20T08:16:56;100268.85;;;11.70;96.89
47913;BME280;33676;51.006;17.180;2023-03-20T08:19:41;100269.82;;;11.73;96.60
47913;BME280;33676;51.006;17.180;2023-03-20T08:22:10;100272.33;;;11.77;96.20
47913;BME280;33676;51.006;17.180;2023-03-20T08:24:38;100273.76;;;11.81;95.96
47913;BME280;33676;51.006;17.180;2023-03-20T08:27:07;100273.30;;;11.84;95.75
47913;BME280;33676;51.006;17.180;2023-03-20T08:29:35;100269.67;;;11.86;95.70
47913;BME280;33676;51.006;17.180;2023-03-20T08:32:04;100273.83;;;11.87;95.44
47913;BME280;33676;51.006;17.180;2023-03-20T08:34:34;100275.80;;;11.88;95.38
47913;BME280;33676;51.006;17.180;2023-03-20T08:37:03;100278.32;;;11.89;95.52
47913;BME280;33676;51.006;17.180;2023-03-20T08:39:32;100277.56;;;11.90;95.24
47913;BME280;33676;51.006;17.180;2023-03-20T08:42:00;100278.03;;;11.90;95.07
47913;BME280;33676;51.006;17.180;2023-03-20T08:44:29;100284.00;;;11.90;94.76
47913;BME280;33676;51.006;17.180;2023-03-20T08:46:57;100285.48;;;11.92;94.88
47913;BME280;33676;51.006;17.180;2023-03-20T08:49:26;100288.12;;;11.94;94.92
47913;BME280;33676;51.006;17.180;2023-03-20T08:51:55;100294.88;;;11.95;94.82
47913;BME280;33676;51.006;17.180;2023-03-20T08:54:23;100296.70;;;11.91;94.76
47913;BME280;33676;51.006;17.180;2023-03-20T08:56:52;100302.50;;;11.89;94.83
47913;BME280;33676;51.006;17.180;2023-03-20T08:59:21;100302.77;;;11.86;94.64
47913;BME280;33676;51.006;17.180;2023-03-20T09:01:49;100298.26;;;11.81;94.36
47913;BME280;33676;51.006;17.180;2023-03-20T09:04:18;100301.39;;;11.77;94.61
47913;BME280;33676;51.006;17.180;2023-03-20T09:06:46;100302.07;;;11.75;94.63
47913;BME280;33676;51.006;17.180;2023-03-20T09:09:14;100304.46;;;11.74;94.89
47913;BME280;33676;51.006;17.180;2023-03-20T09:11:45;100303.58;;;11.71;94.84
47913;BME280;33676;51.006;17.180;2023-03-20T09:14:14;100306.44;;;11.69;94.81
47913;BME280;33676;51.006;17.180;2023-03-20T09:16:43;100307.08;;;11.65;94.90
47913;BME280;33676;51.006;17.180;2023-03-20T09:19:11;100305.67;;;11.63;94.91
47913;BME280;33676;51.006;17.180;2023-03-20T09:21:40;100306.71;;;11.61;95.00
47913;BME280;33676;51.006;17.180;2023-03-20T09:24:08;100303.70;;;11.59;95.08
47913;BME280;33676;51.006;17.180;2023-03-20T09:26:37;100305.19;;;11.58;95.03
47913;BME280;33676;51.006;17.180;2023-03-20T09:29:06;100303.69;;;11.57;95.07
47913;BME280;33676;51.006;17.180;2023-03-20T09:31:34;100303.30;;;11.58;95.33
47913;BME280;33676;51.006;17.180;2023-03-20T09:34:03;100304.19;;;11.60;95.40
47913;BME280;33676;51.006;17.180;2023-03-20T09:36:32;100305.10;;;11.61;95.26
47913;BME280;33676;51.006;17.180;2023-03-20T09:39:39;100300.14;;;11.69;95.19
47913;BME280;33676;51.006;17.180;2023-03-20T09:52:26;100300.05;;;12.04;95.14
47913;BME280;33676;51.006;17.180;2023-03-20T09:55:34;100299.97;;;12.19;95.23
47913;BME280;33676;51.006;17.180;2023-03-20T09:58:19;100303.92;;;12.33;95.12
47913;BME280;33676;51.006;17.180;2023-03-20T10:00:48;100305.63;;;12.44;95.01
47913;BME280;33676;51.006;17.180;2023-03-20T10:03:21;100303.20;;;12.53;94.81
47913;BME280;33676;51.006;17.180;2023-03-20T10:06:12;100301.00;;;12.66;95.08
47913;BME280;33676;51.006;17.180;2023-03-20T10:08:41;100300.04;;;12.81;94.89
47913;BME280;33676;51.006;17.180;2023-03-20T10:14:24;100292.46;;;13.01;94.07
47913;BME280;33676;51.006;17.180;2023-03-20T10:20:09;100287.63;;;13.25;93.71
47913;BME280;33676;51.006;17.180;2023-03-20T10:22:47;100284.27;;;13.41;93.79
47913;BME280;33676;51.006;17.180;2023-03-20T10:25:43;100288.64;;;13.56;93.53
47913;BME280;33676;51.006;17.180;2023-03-20T10:28:17;100285.30;;;13.73;93.22
47913;BME280;33676;51.006;17.180;2023-03-20T10:33:53;100281.90;;;14.05;92.44
47913;BME280;33676;51.006;17.180;2023-03-20T10:42:32;100271.11;;;14.82;92.20
47913;BME280;33676;51.006;17.180;2023-03-20T10:48:02;100259.39;;;15.69;92.91
47913;BME280;33676;51.006;17.180;2023-03-20T10:50:44;100258.38;;;16.24;91.93
47913;BME280;33676;51.006;17.180;2023-03-20T10:53:38;100260.67;;;16.67;91.27
47913;BME280;33676;51.006;17.180;2023-03-20T10:56:28;100257.19;;;16.97;90.36
47913;BME280;33676;51.006;17.180;2023-03-20T10:59:31;100257.16;;;16.97;88.13
47913;BME280;33676;51.006;17.180;2023-03-20T11:02:01;100256.89;;;16.98;87.62
47913;BME280;33676;51.006;17.180;2023-03-20T11:04:29;100254.86;;;17.05;87.27
47913;BME280;33676;51.006;17.180;2023-03-20T11:07:07;100249.33;;;17.31;87.48
47913;BME280;33676;51.006;17.180;2023-03-20T11:09:39;100248.25;;;17.77;86.98
47913;BME280;33676;51.006;17.180;2023-03-20T11:12:18;100248.21;;;18.11;86.40
47913;BME280;33676;51.006;17.180;2023-03-20T11:14:47;100249.98;;;18.30;85.28
47913;BME280;33676;51.006;17.180;2023-03-20T11:17:15;100250.33;;;18.23;84.32
47913;BME280;33676;51.006;17.180;2023-03-20T11:19:44;100244.58;;;18.07;83.62
47913;BME280;33676;51.006;17.180;2023-03-20T11:22:24;100246.68;;;17.88;82.89
47913;BME280;33676;51.006;17.180;2023-03-20T11:24:57;100243.67;;;17.78;83.08
47913;BME280;33676;51.006;17.180;2023-03-20T11:27:33;100244.99;;;17.90;82.99
47913;BME280;33676;51.006;17.180;2023-03-20T11:30:10;100243.52;;;18.16;83.19
47913;BME280;33676;51.006;17.180;2023-03-20T11:32:49;100243.13;;;18.53;82.96
47913;BME280;33676;51.006;17.180;2023-03-20T11:38:19;100243.00;;;18.70;81.58
47913;BME280;33676;51.006;17.180;2023-03-20T11:40:50;100240.63;;;18.88;80.85
47913;BME280;33676;51.006;17.180;2023-03-20T11:43:25;100238.14;;;19.07;80.73
47913;BME280;33676;51.006;17.180;2023-03-20T11:46:00;100231.55;;;18.95;80.50
47913;BME280;33676;51.006;17.180;2023-03-20T11:48:39;100228.95;;;18.99;80.91
47913;BME280;33676;51.006;17.180;2023-03-20T11:51:19;100230.46;;;18.87;80.19
47913;BME280;33676;51.006;17.180;2023-03-20T11:54:02;100231.35;;;18.60;79.39
47913;BME280;33676;51.006;17.180;2023-03-20T11:56:33;100230.67;;;18.30;79.41
47913;BME280;33676;51.006;17.180;2023-03-20T11:59:16;100230.27;;;18.15;79.60
47913;BME280;33676;51.006;17.180;2023-03-20T12:01:54;100230.24;;;18.07;79.94
47913;BME280;33676;51.006;17.180;2023-03-20T12:04:32;100224.06;;;17.99;80.03
47913;BME280;33676;51.006;17.180;2023-03-20T12:07:28;100224.32;;;18.00;80.46
47913;BME280;33676;51.006;17.180;2023-03-20T12:10:10;100224.17;;;18.11;79.94
47913;BME280;33676;51.006;17.180;2023-03-20T12:15:32;100214.65;;;18.40;78.63
47913;BME280;33676;51.006;17.180;2023-03-20T12:18:16;100205.14;;;18.54;78.89
47913;BME280;33676;51.006;17.180;2023-03-20T12:21:11;100206.46;;;18.69;78.52
47913;BME280;33676;51.006;17.180;2023-03-20T12:24:03;100204.64;;;18.70;78.16
47913;BME280;33676;51.006;17.180;2023-03-20T12:26:55;100203.77;;;18.68;77.77
47913;BME280;33676;51.006;17.180;2023-03-20T12:29:31;100194.45;;;18.48;77.28
47913;BME280;33676;51.006;17.180;2023-03-20T12:32:19;100199.67;;;18.32;77.26
47913;BME280;33676;51.006;17.180;2023-03-20T12:35:04;100198.79;;;18.15;77.37
47913;BME280;33676;51.006;17.180;2023-03-20T12:37:37;100190.89;;;18.16;77.44
47913;BME280;33676;51.006;17.180;2023-03-20T12:40:15;100188.58;;;18.38;77.87
47913;BME280;33676;51.006;17.180;2023-03-20T12:43:13;100191.90;;;18.35;77.63
47913;BME280;33676;51.006;17.180;2023-03-20T12:52:42;100183.15;;;18.07;76.79
47913;BME280;33676;51.006;17.180;2023-03-20T12:56:00;100172.73;;;18.07;76.70
47913;BME280;33676;51.006;17.180;2023-03-20T13:04:51;100158.95;;;19.03;76.92
47913;BME280;33676;51.006;17.180;2023-03-20T13:13:58;100153.04;;;20.46;74.82
47913;BME280;33676;51.006;17.180;2023-03-20T13:16:50;100151.31;;;20.78;74.47
47913;BME280;33676;51.006;17.180;2023-03-20T13:19:38;100149.00;;;20.91;73.87
47913;BME280;33676;51.006;17.180;2023-03-20T13:22:40;100148.64;;;20.90;73.40
47913;BME280;33676;51.006;17.180;2023-03-20T13:34:31;100138.80;;;20.72;72.33
47913;BME280;33676;51.006;17.180;2023-03-20T13:40:05;100134.04;;;20.60;71.69
47913;BME280;33676;51.006;17.180;2023-03-20T13:45:40;100134.95;;;19.99;71.26
47913;BME280;33676;51.006;17.180;2023-03-20T13:48:34;100134.42;;;19.60;71.29
47913;BME280;33676;51.006;17.180;2023-03-20T13:51:41;100142.48;;;19.11;70.59
47913;BME280;33676;51.006;17.180;2023-03-20T13:54:25;100139.33;;;18.51;69.52
47913;BME280;33676;51.006;17.180;2023-03-20T14:00:21;100135.30;;;17.87;69.63
47913;BME280;33676;51.006;17.180;2023-03-20T14:03:10;100137.41;;;17.76;69.30
47913;BME280;33676;51.006;17.180;2023-03-20T14:05:42;100136.66;;;17.69;69.10
47913;BME280;33676;51.006;17.180;2023-03-20T14:08:29;100131.20;;;18.24;69.73
47913;BME280;33676;51.006;17.180;2023-03-20T14:13:54;100126.14;;;20.04;70.05
47913;BME280;33676;51.006;17.180;2023-03-20T14:16:26;100128.07;;;20.67;69.51
47913;BME280;33676;51.006;17.180;2023-03-20T14:19:19;100121.34;;;20.98;68.56
47913;BME280;33676;51.006;17.180;2023-03-20T14:21:53;100119.34;;;20.85;67.36
47913;BME280;33676;51.006;17.180;2023-03-20T14:24:26;100116.88;;;20.77;66.79
47913;BME280;33676;51.006;17.180;2023-03-20T14:26:59;100115.47;;;21.02;66.55
47913;BME280;33676;51.006;17.180;2023-03-20T14:34:50;100130.70;;;20.46;65.82
47913;BME280;33676;51.006;17.180;2023-03-20T14:37:36;100134.24;;;19.81;65.85
47913;BME280;33676;51.006;17.180;2023-03-20T14:40:23;100129.41;;;19.14;66.28
47913;BME280;33676;51.006;17.180;2023-03-20T14:49:37;100136.56;;;17.39;69.32
47913;BME280;33676;51.006;17.180;2023-03-20T15:04:04;100145.30;;;17.06;71.60
47913;BME280;33676;51.006;17.180;2023-03-20T15:06:43;100147.55;;;17.19;70.25
47913;BME280;33676;51.006;17.180;2023-03-20T15:09:13;100144.06;;;17.04;70.58
47913;BME280;33676;51.006;17.180;2023-03-20T15:11:43;100148.84;;;17.09;70.98
47913;BME280;33676;51.006;17.180;2023-03-20T15:14:19;100144.02;;;16.93;71.56
47913;BME280;33676;51.006;17.180;2023-03-20T15:16:56;100150.65;;;16.84;72.19
47913;BME280;33676;51.006;17.180;2023-03-20T15:19:26;100150.46;;;16.78;72.21
47913;BME280;33676;51.006;17.180;2023-03-20T15:21:55;100152.74;;;16.56;72.29
47913;BME280;33676;51.006;17.180;2023-03-20T15:24:28;100152.46;;;16.33;72.14
47913;BME280;33676;51.006;17.180;2023-03-20T15:26:59;100144.09;;;16.16;72.08
47913;BME280;33676;51.006;17.180;2023-03-20T15:29:30;100143.25;;;16.02;72.07
47913;BME280;33676;51.006;17.180;2023-03-20T15:32:01;100148.95;;;15.89;72.14
47913;BME280;33676;51.006;17.180;2023-03-20T15:34:42;100155.42;;;15.74;72.05
47913;BME280;33676;51.006;17.180;2023-03-20T15:37:18;100154.40;;;15.57;72.00